Ayr Dpi Research Station, Queensland

6:17 AM AEST on August 30, 2016 (GMT +1000)
AYR Live Weather | | Change Station

Elev 39 ft 19.58 °S, 147.42 °E | Updated 10 seconds ago

Mostly Cloudy
Mostly Cloudy
65.2 °F
Feels Like 65.2 °F
N
0.0
Wind Variable Wind from North
Gusts 0.0 mph

Today
High -- | Low -- °F
--% Chance of Precip.
Yesterday
High -- | Low -- °F
Precip. -- in
Pressure 30.15 in
Visibility 6.2 miles
Clouds Few 800 ft
Scattered Clouds 2200 ft
Mostly Cloudy 5700 ft
Dew Point 63 °F
Humidity 94%
Rainfall 0.02 in
Snow Depth Not available.
6:20 AM 6:01 PM
Waning Crescent, 7% visible
METAR YBTL 292000Z 12006KT 9999 VCSH FEW008 SCT022 BKN057 19/18 Q1021
Pressure 30.15 in
Visibility 6.2 miles
Clouds Few 800 ft
Scattered Clouds 2200 ft
Mostly Cloudy 5700 ft
Dew Point 63 °F
Humidity 94%
Rainfall 0.02 in
Snow Depth Not available.
6:20 AM 6:01 PM
Waning Crescent, 7% visible
METAR YBTL 292000Z 12006KT 9999 VCSH FEW008 SCT022 BKN057 19/18 Q1021

10-Day Weather Forecast

Almanac

Astronomy

Aug. 30, 2016 Rise Set
Actual Time
Civil Twilight
Nautical Twilight
Astronomical Twilight
Moon
Length of Visible Light
Length of Day
Tomorrow will be .
, % of the Moon is Illuminated

Today's Extremes

Country Highs Country Lows

Community

WunderPhotos

Upload Photos

1,935,647 photos uploaded!

WunderBlog® & News

Nearby

Air Quality

  Air Quality AQ Index Pollutant
Not available.

Snow Depth

Station Depth Elevation

Earthquake Activity

City Distance Mag. Time & Date
Minimum magnitude displayed is 2.5.

Coastal Water Temperatures

Place Temperature

Stations

Nearby Weather Stations

Station Location Temp. Windchill Dew Point Humidity Wind Precip. Elev Updated Type